sensor_id;sensor_type;location;lat;lon;timestamp;P1;durP1;ratioP1;P2;durP2;ratioP2
25780;SDS011;13626;48.128;11.628;2023-03-24T00:01:57;4.65;;;3.35;;
25780;SDS011;13626;48.128;11.628;2023-03-24T00:04:25;5.35;;;2.72;;
25780;SDS011;13626;48.128;11.628;2023-03-24T00:06:53;3.22;;;2.90;;
25780;SDS011;13626;48.128;11.628;2023-03-24T00:09:20;3.95;;;2.97;;
25780;SDS011;13626;48.128;11.628;2023-03-24T00:11:47;5.65;;;2.80;;
25780;SDS011;13626;48.128;11.628;2023-03-24T00:14:15;5.07;;;3.13;;
25780;SDS011;13626;48.128;11.628;2023-03-24T00:16:44;4.45;;;2.80;;
25780;SDS011;13626;48.128;11.628;2023-03-24T00:19:12;5.70;;;3.00;;
25780;SDS011;13626;48.128;11.628;2023-03-24T00:21:40;4.57;;;3.15;;
25780;SDS011;13626;48.128;11.628;2023-03-24T00:24:08;5.38;;;3.20;;
25780;SDS011;13626;48.128;11.628;2023-03-24T00:26:36;3.97;;;3.05;;
25780;SDS011;13626;48.128;11.628;2023-03-24T00:29:05;4.38;;;3.15;;
25780;SDS011;13626;48.128;11.628;2023-03-24T00:31:33;4.13;;;2.78;;
25780;SDS011;13626;48.128;11.628;2023-03-24T00:34:05;3.85;;;2.85;;
25780;SDS011;13626;48.128;11.628;2023-03-24T00:36:34;3.25;;;2.67;;
25780;SDS011;13626;48.128;11.628;2023-03-24T00:39:02;5.15;;;2.80;;
25780;SDS011;13626;48.128;11.628;2023-03-24T00:41:30;4.95;;;3.25;;
25780;SDS011;13626;48.128;11.628;2023-03-24T00:43:58;4.47;;;2.45;;
25780;SDS011;13626;48.128;11.628;2023-03-24T00:46:25;4.07;;;2.88;;
25780;SDS011;13626;48.128;11.628;2023-03-24T00:48:54;4.75;;;3.03;;
25780;SDS011;13626;48.128;11.628;2023-03-24T00:51:29;5.53;;;3.00;;
25780;SDS011;13626;48.128;11.628;2023-03-24T00:53:56;4.22;;;2.92;;
25780;SDS011;13626;48.128;11.628;2023-03-24T00:56:24;4.72;;;3.15;;
25780;SDS011;13626;48.128;11.628;2023-03-24T00:58:53;4.32;;;3.22;;
25780;SDS011;13626;48.128;11.628;2023-03-24T01:01:26;3.83;;;3.10;;
25780;SDS011;13626;48.128;11.628;2023-03-24T01:03:54;6.00;;;3.30;;
25780;SDS011;13626;48.128;11.628;2023-03-24T01:06:22;3.97;;;3.15;;
25780;SDS011;13626;48.128;11.628;2023-03-24T01:08:50;4.53;;;3.00;;
25780;SDS011;13626;48.128;11.628;2023-03-24T01:11:20;5.70;;;3.20;;
25780;SDS011;13626;48.128;11.628;2023-03-24T01:13:48;4.57;;;3.30;;
25780;SDS011;13626;48.128;11.628;2023-03-24T01:16:15;5.10;;;3.42;;
25780;SDS011;13626;48.128;11.628;2023-03-24T01:18:42;4.38;;;3.05;;
25780;SDS011;13626;48.128;11.628;2023-03-24T01:21:10;4.93;;;3.00;;
25780;SDS011;13626;48.128;11.628;2023-03-24T01:23:38;3.42;;;2.63;;
25780;SDS011;13626;48.128;11.628;2023-03-24T01:26:07;4.45;;;3.08;;
25780;SDS011;13626;48.128;11.628;2023-03-24T01:28:36;3.40;;;2.60;;
25780;SDS011;13626;48.128;11.628;2023-03-24T01:31:07;5.97;;;3.10;;
25780;SDS011;13626;48.128;11.628;2023-03-24T01:33:36;7.35;;;3.22;;
25780;SDS011;13626;48.128;11.628;2023-03-24T01:36:03;3.03;;;2.67;;
25780;SDS011;13626;48.128;11.628;2023-03-24T01:38:31;6.40;;;3.15;;
25780;SDS011;13626;48.128;11.628;2023-03-24T01:40:58;4.75;;;2.85;;
25780;SDS011;13626;48.128;11.628;2023-03-24T01:43:27;3.50;;;2.83;;
25780;SDS011;13626;48.128;11.628;2023-03-24T01:51:05;4.70;;;3.08;;
25780;SDS011;13626;48.128;11.628;2023-03-24T01:53:33;5.15;;;3.17;;
25780;SDS011;13626;48.128;11.628;2023-03-24T01:56:01;4.40;;;3.20;;
25780;SDS011;13626;48.128;11.628;2023-03-24T01:58:30;3.67;;;2.83;;
25780;SDS011;13626;48.128;11.628;2023-03-24T02:00:57;2.95;;;2.45;;
25780;SDS011;13626;48.128;11.628;2023-03-24T02:03:25;5.05;;;3.30;;
25780;SDS011;13626;48.128;11.628;2023-03-24T02:05:55;5.38;;;2.67;;
25780;SDS011;13626;48.128;11.628;2023-03-24T02:11:05;4.03;;;2.95;;
25780;SDS011;13626;48.128;11.628;2023-03-24T02:13:32;7.97;;;3.33;;
25780;SDS011;13626;48.128;11.628;2023-03-24T02:16:03;6.05;;;2.92;;
25780;SDS011;13626;48.128;11.628;2023-03-24T02:31:30;4.55;;;2.95;;
25780;SDS011;13626;48.128;11.628;2023-03-24T02:34:06;3.60;;;2.83;;
25780;SDS011;13626;48.128;11.628;2023-03-24T02:39:44;4.57;;;3.25;;
25780;SDS011;13626;48.128;11.628;2023-03-24T02:42:20;5.00;;;3.28;;
25780;SDS011;13626;48.128;11.628;2023-03-24T02:44:53;3.72;;;2.70;;
25780;SDS011;13626;48.128;11.628;2023-03-24T02:47:38;12.02;;;3.17;;
25780;SDS011;13626;48.128;11.628;2023-03-24T02:52:47;5.07;;;3.33;;
25780;SDS011;13626;48.128;11.628;2023-03-24T02:55:24;5.97;;;3.38;;
25780;SDS011;13626;48.128;11.628;2023-03-24T02:57:55;3.58;;;3.03;;
25780;SDS011;13626;48.128;11.628;2023-03-24T03:00:28;5.82;;;2.90;;
25780;SDS011;13626;48.128;11.628;2023-03-24T03:03:02;4.38;;;3.13;;
25780;SDS011;13626;48.128;11.628;2023-03-24T03:05:35;4.53;;;3.00;;
25780;SDS011;13626;48.128;11.628;2023-03-24T03:08:04;4.97;;;3.28;;
25780;SDS011;13626;48.128;11.628;2023-03-24T03:10:37;4.22;;;3.13;;
25780;SDS011;13626;48.128;11.628;2023-03-24T03:13:10;4.20;;;3.33;;
25780;SDS011;13626;48.128;11.628;2023-03-24T03:15:40;7.15;;;3.08;;
25780;SDS011;13626;48.128;11.628;2023-03-24T03:18:19;5.18;;;3.33;;
25780;SDS011;13626;48.128;11.628;2023-03-24T03:20:52;5.50;;;3.33;;
25780;SDS011;13626;48.128;11.628;2023-03-24T03:23:26;4.38;;;3.20;;
25780;SDS011;13626;48.128;11.628;2023-03-24T03:25:56;3.33;;;3.00;;
25780;SDS011;13626;48.128;11.628;2023-03-24T03:28:32;3.72;;;2.85;;
25780;SDS011;13626;48.128;11.628;2023-03-24T03:31:00;4.90;;;3.08;;
25780;SDS011;13626;48.128;11.628;2023-03-24T03:33:39;3.25;;;2.75;;
25780;SDS011;13626;48.128;11.628;2023-03-24T03:36:22;4.68;;;3.40;;
25780;SDS011;13626;48.128;11.628;2023-03-24T03:41:18;4.63;;;3.13;;
25780;SDS011;13626;48.128;11.628;2023-03-24T03:43:46;3.78;;;3.13;;
25780;SDS011;13626;48.128;11.628;2023-03-24T03:46:14;4.53;;;2.97;;
25780;SDS011;13626;48.128;11.628;2023-03-24T03:48:42;4.25;;;3.20;;
25780;SDS011;13626;48.128;11.628;2023-03-24T03:51:09;3.10;;;2.78;;
25780;SDS011;13626;48.128;11.628;2023-03-24T03:56:09;5.30;;;3.25;;
25780;SDS011;13626;48.128;11.628;2023-03-24T03:58:36;6.55;;;3.00;;
25780;SDS011;13626;48.128;11.628;2023-03-24T04:01:05;3.60;;;3.25;;
25780;SDS011;13626;48.128;11.628;2023-03-24T04:06:56;4.93;;;2.75;;
25780;SDS011;13626;48.128;11.628;2023-03-24T04:09:13;4.00;;;3.03;;
25780;SDS011;13626;48.128;11.628;2023-03-24T04:25:12;3.33;;;2.85;;
25780;SDS011;13626;48.128;11.628;2023-03-24T04:32:55;4.97;;;3.10;;
25780;SDS011;13626;48.128;11.628;2023-03-24T04:38:01;5.50;;;3.42;;
25780;SDS011;13626;48.128;11.628;2023-03-24T04:40:33;3.83;;;3.03;;
25780;SDS011;13626;48.128;11.628;2023-03-24T04:43:02;5.15;;;3.00;;
25780;SDS011;13626;48.128;11.628;2023-03-24T04:45:30;5.45;;;3.90;;
25780;SDS011;13626;48.128;11.628;2023-03-24T04:48:03;4.88;;;2.95;;
25780;SDS011;13626;48.128;11.628;2023-03-24T04:50:32;6.55;;;3.58;;
25780;SDS011;13626;48.128;11.628;2023-03-24T04:53:01;4.75;;;3.13;;
25780;SDS011;13626;48.128;11.628;2023-03-24T04:58:15;7.15;;;3.00;;
25780;SDS011;13626;48.128;11.628;2023-03-24T05:00:42;3.60;;;3.10;;
25780;SDS011;13626;48.128;11.628;2023-03-24T05:03:10;4.55;;;2.88;;
25780;SDS011;13626;48.128;11.628;2023-03-24T05:05:41;4.38;;;3.10;;
25780;SDS011;13626;48.128;11.628;2023-03-24T05:08:09;5.03;;;3.05;;
25780;SDS011;13626;48.128;11.628;2023-03-24T05:10:36;8.20;;;3.30;;
25780;SDS011;13626;48.128;11.628;2023-03-24T05:13:04;3.80;;;3.40;;
25780;SDS011;13626;48.128;11.628;2023-03-24T05:15:32;5.57;;;3.88;;
25780;SDS011;13626;48.128;11.628;2023-03-24T05:17:59;5.95;;;3.22;;
25780;SDS011;13626;48.128;11.628;2023-03-24T05:20:26;4.30;;;3.25;;
25780;SDS011;13626;48.128;11.628;2023-03-24T05:22:55;4.25;;;2.90;;
25780;SDS011;13626;48.128;11.628;2023-03-24T05:25:22;7.63;;;3.40;;
25780;SDS011;13626;48.128;11.628;2023-03-24T05:27:49;5.68;;;3.35;;
25780;SDS011;13626;48.128;11.628;2023-03-24T05:30:16;4.93;;;3.58;;
25780;SDS011;13626;48.128;11.628;2023-03-24T05:32:45;6.28;;;3.92;;
25780;SDS011;13626;48.128;11.628;2023-03-24T05:35:13;6.57;;;4.32;;
25780;SDS011;13626;48.128;11.628;2023-03-24T05:37:40;6.25;;;3.92;;
25780;SDS011;13626;48.128;11.628;2023-03-24T05:40:07;7.88;;;3.95;;
25780;SDS011;13626;48.128;11.628;2023-03-24T05:42:35;4.95;;;3.60;;
25780;SDS011;13626;48.128;11.628;2023-03-24T05:45:02;4.18;;;3.20;;
25780;SDS011;13626;48.128;11.628;2023-03-24T05:47:29;6.78;;;3.47;;
25780;SDS011;13626;48.128;11.628;2023-03-24T05:49:57;4.88;;;3.20;;
25780;SDS011;13626;48.128;11.628;2023-03-24T05:52:24;5.40;;;3.70;;
25780;SDS011;13626;48.128;11.628;2023-03-24T05:54:54;5.35;;;4.10;;
25780;SDS011;13626;48.128;11.628;2023-03-24T05:57:21;5.50;;;3.30;;
25780;SDS011;13626;48.128;11.628;2023-03-24T05:59:48;5.13;;;3.63;;
25780;SDS011;13626;48.128;11.628;2023-03-24T06:02:17;5.32;;;3.78;;
25780;SDS011;13626;48.128;11.628;2023-03-24T06:04:44;5.78;;;3.80;;
25780;SDS011;13626;48.128;11.628;2023-03-24T06:07:14;6.72;;;3.95;;
25780;SDS011;13626;48.128;11.628;2023-03-24T06:09:42;5.05;;;4.28;;
25780;SDS011;13626;48.128;11.628;2023-03-24T06:12:12;5.20;;;4.00;;
25780;SDS011;13626;48.128;11.628;2023-03-24T06:14:41;7.25;;;4.50;;
25780;SDS011;13626;48.128;11.628;2023-03-24T06:17:08;6.53;;;4.35;;
25780;SDS011;13626;48.128;11.628;2023-03-24T06:19:40;7.05;;;4.70;;
25780;SDS011;13626;48.128;11.628;2023-03-24T06:22:17;8.20;;;5.10;;
25780;SDS011;13626;48.128;11.628;2023-03-24T06:24:45;6.95;;;4.63;;
25780;SDS011;13626;48.128;11.628;2023-03-24T06:27:13;7.78;;;4.28;;
25780;SDS011;13626;48.128;11.628;2023-03-24T06:29:40;6.07;;;4.13;;
25780;SDS011;13626;48.128;11.628;2023-03-24T06:32:08;7.15;;;4.68;;
25780;SDS011;13626;48.128;11.628;2023-03-24T06:34:35;4.95;;;3.67;;
25780;SDS011;13626;48.128;11.628;2023-03-24T06:37:04;7.50;;;4.40;;
25780;SDS011;13626;48.128;11.628;2023-03-24T06:39:31;6.72;;;4.78;;
25780;SDS011;13626;48.128;11.628;2023-03-24T06:41:58;5.93;;;4.25;;
25780;SDS011;13626;48.128;11.628;2023-03-24T06:44:25;5.45;;;3.85;;
25780;SDS011;13626;48.128;11.628;2023-03-24T06:46:53;8.77;;;4.78;;
25780;SDS011;13626;48.128;11.628;2023-03-24T06:49:20;5.38;;;4.30;;
25780;SDS011;13626;48.128;11.628;2023-03-24T06:51:47;4.95;;;4.03;;
25780;SDS011;13626;48.128;11.628;2023-03-24T06:54:15;5.80;;;4.03;;
25780;SDS011;13626;48.128;11.628;2023-03-24T06:56:43;7.40;;;4.20;;
25780;SDS011;13626;48.128;11.628;2023-03-24T06:59:10;5.75;;;4.10;;
25780;SDS011;13626;48.128;11.628;2023-03-24T07:01:38;7.38;;;4.55;;
25780;SDS011;13626;48.128;11.628;2023-03-24T07:04:05;4.95;;;4.00;;
25780;SDS011;13626;48.128;11.628;2023-03-24T07:06:32;7.93;;;4.90;;
25780;SDS011;13626;48.128;11.628;2023-03-24T07:09:16;11.18;;;6.57;;
25780;SDS011;13626;48.128;11.628;2023-03-24T07:11:44;7.88;;;5.20;;
25780;SDS011;13626;48.128;11.628;2023-03-24T07:14:12;6.25;;;4.88;;
25780;SDS011;13626;48.128;11.628;2023-03-24T07:16:39;7.03;;;5.20;;
25780;SDS011;13626;48.128;11.628;2023-03-24T07:19:06;6.28;;;4.32;;
25780;SDS011;13626;48.128;11.628;2023-03-24T07:21:33;8.15;;;4.75;;
25780;SDS011;13626;48.128;11.628;2023-03-24T07:24:00;6.60;;;5.10;;
25780;SDS011;13626;48.128;11.628;2023-03-24T07:26:28;6.88;;;4.85;;
25780;SDS011;13626;48.128;11.628;2023-03-24T07:28:55;6.38;;;4.70;;
25780;SDS011;13626;48.128;11.628;2023-03-24T07:31:23;5.75;;;4.60;;
25780;SDS011;13626;48.128;11.628;2023-03-24T07:33:50;7.60;;;5.43;;
25780;SDS011;13626;48.128;11.628;2023-03-24T07:36:17;6.72;;;5.03;;
25780;SDS011;13626;48.128;11.628;2023-03-24T07:38:44;6.50;;;4.97;;
25780;SDS011;13626;48.128;11.628;2023-03-24T07:41:12;8.05;;;5.53;;
25780;SDS011;13626;48.128;11.628;2023-03-24T07:43:39;7.30;;;5.38;;
25780;SDS011;13626;48.128;11.628;2023-03-24T07:46:06;7.32;;;5.22;;
25780;SDS011;13626;48.128;11.628;2023-03-24T07:48:36;8.40;;;5.20;;
25780;SDS011;13626;48.128;11.628;2023-03-24T07:51:03;6.53;;;5.10;;
25780;SDS011;13626;48.128;11.628;2023-03-24T07:53:31;10.88;;;5.13;;
25780;SDS011;13626;48.128;11.628;2023-03-24T07:55:58;10.38;;;5.97;;
25780;SDS011;13626;48.128;11.628;2023-03-24T07:58:26;15.18;;;7.00;;
25780;SDS011;13626;48.128;11.628;2023-03-24T08:00:53;9.93;;;6.18;;
25780;SDS011;13626;48.128;11.628;2023-03-24T08:03:20;13.82;;;6.25;;
25780;SDS011;13626;48.128;11.628;2023-03-24T08:05:53;15.43;;;6.43;;
25780;SDS011;13626;48.128;11.628;2023-03-24T08:08:21;10.65;;;6.53;;
25780;SDS011;13626;48.128;11.628;2023-03-24T08:10:49;11.02;;;5.40;;
25780;SDS011;13626;48.128;11.628;2023-03-24T08:13:16;9.80;;;5.53;;
25780;SDS011;13626;48.128;11.628;2023-03-24T08:15:43;9.15;;;5.45;;
25780;SDS011;13626;48.128;11.628;2023-03-24T08:18:11;7.93;;;5.15;;
25780;SDS011;13626;48.128;11.628;2023-03-24T08:20:38;9.63;;;4.90;;
25780;SDS011;13626;48.128;11.628;2023-03-24T08:23:06;8.57;;;4.47;;
25780;SDS011;13626;48.128;11.628;2023-03-24T08:25:33;5.65;;;4.18;;
25780;SDS011;13626;48.128;11.628;2023-03-24T08:28:04;4.35;;;3.40;;
25780;SDS011;13626;48.128;11.628;2023-03-24T08:30:31;4.88;;;3.75;;
25780;SDS011;13626;48.128;11.628;2023-03-24T08:33:00;4.68;;;3.08;;
25780;SDS011;13626;48.128;11.628;2023-03-24T08:35:28;3.95;;;3.22;;
25780;SDS011;13626;48.128;11.628;2023-03-24T08:37:56;5.03;;;3.22;;
25780;SDS011;13626;48.128;11.628;2023-03-24T08:40:32;4.40;;;2.97;;
25780;SDS011;13626;48.128;11.628;2023-03-24T08:43:00;3.35;;;3.00;;
25780;SDS011;13626;48.128;11.628;2023-03-24T08:45:29;5.03;;;3.20;;
25780;SDS011;13626;48.128;11.628;2023-03-24T08:47:58;3.95;;;3.17;;
25780;SDS011;13626;48.128;11.628;2023-03-24T08:50:26;4.78;;;2.85;;
25780;SDS011;13626;48.128;11.628;2023-03-24T08:52:54;3.33;;;2.88;;
25780;SDS011;13626;48.128;11.628;2023-03-24T08:55:22;6.68;;;2.50;;
25780;SDS011;13626;48.128;11.628;2023-03-24T08:57:49;4.40;;;3.05;;
25780;SDS011;13626;48.128;11.628;2023-03-24T09:00:17;3.15;;;2.70;;
25780;SDS011;13626;48.128;11.628;2023-03-24T09:02:45;4.43;;;3.22;;
25780;SDS011;13626;48.128;11.628;2023-03-24T09:05:13;4.70;;;2.78;;
25780;SDS011;13626;48.128;11.628;2023-03-24T09:07:41;3.13;;;2.78;;
25780;SDS011;13626;48.128;11.628;2023-03-24T09:10:08;4.25;;;3.42;;
25780;SDS011;13626;48.128;11.628;2023-03-24T09:12:36;4.93;;;2.80;;
25780;SDS011;13626;48.128;11.628;2023-03-24T09:15:04;4.50;;;3.20;;
25780;SDS011;13626;48.128;11.628;2023-03-24T09:17:31;6.03;;;3.17;;
25780;SDS011;13626;48.128;11.628;2023-03-24T09:19:59;3.97;;;3.10;;
25780;SDS011;13626;48.128;11.628;2023-03-24T09:22:27;5.03;;;3.30;;
25780;SDS011;13626;48.128;11.628;2023-03-24T09:24:55;3.08;;;2.78;;
25780;SDS011;13626;48.128;11.628;2023-03-24T09:27:22;4.35;;;2.60;;
25780;SDS011;13626;48.128;11.628;2023-03-24T09:29:50;3.90;;;2.50;;
25780;SDS011;13626;48.128;11.628;2023-03-24T09:32:19;4.10;;;2.83;;
25780;SDS011;13626;48.128;11.628;2023-03-24T09:34:47;2.85;;;2.53;;
25780;SDS011;13626;48.128;11.628;2023-03-24T09:37:14;3.30;;;2.70;;
25780;SDS011;13626;48.128;11.628;2023-03-24T09:39:41;2.80;;;2.40;;
25780;SDS011;13626;48.128;11.628;2023-03-24T09:42:12;4.60;;;2.60;;
25780;SDS011;13626;48.128;11.628;2023-03-24T09:44:45;4.50;;;2.75;;
25780;SDS011;13626;48.128;11.628;2023-03-24T09:49:46;2.58;;;2.35;;
25780;SDS011;13626;48.128;11.628;2023-03-24T09:52:16;4.82;;;2.58;;
25780;SDS011;13626;48.128;11.628;2023-03-24T09:54:57;3.42;;;2.53;;
25780;SDS011;13626;48.128;11.628;2023-03-24T09:57:42;3.20;;;2.33;;
25780;SDS011;13626;48.128;11.628;2023-03-24T10:02:43;2.80;;;2.38;;
25780;SDS011;13626;48.128;11.628;2023-03-24T10:05:12;3.80;;;2.60;;
25780;SDS011;13626;48.128;11.628;2023-03-24T10:07:42;2.90;;;2.30;;
25780;SDS011;13626;48.128;11.628;2023-03-24T10:10:25;4.15;;;2.78;;
25780;SDS011;13626;48.128;11.628;2023-03-24T10:12:57;4.57;;;2.60;;
25780;SDS011;13626;48.128;11.628;2023-03-24T10:15:38;3.50;;;2.65;;
25780;SDS011;13626;48.128;11.628;2023-03-24T10:18:27;3.00;;;2.70;;
25780;SDS011;13626;48.128;11.628;2023-03-24T10:21:39;3.50;;;2.47;;
25780;SDS011;13626;48.128;11.628;2023-03-24T10:31:28;3.83;;;2.80;;
25780;SDS011;13626;48.128;11.628;2023-03-24T10:33:57;5.05;;;3.00;;
25780;SDS011;13626;48.128;11.628;2023-03-24T10:36:24;4.65;;;2.85;;
25780;SDS011;13626;48.128;11.628;2023-03-24T10:38:52;3.17;;;2.65;;
25780;SDS011;13626;48.128;11.628;2023-03-24T10:41:20;4.65;;;2.85;;
25780;SDS011;13626;48.128;11.628;2023-03-24T10:43:49;4.53;;;2.75;;
25780;SDS011;13626;48.128;11.628;2023-03-24T10:46:19;4.55;;;2.83;;
25780;SDS011;13626;48.128;11.628;2023-03-24T10:48:48;4.88;;;3.00;;
25780;SDS011;13626;48.128;11.628;2023-03-24T10:51:17;5.78;;;2.67;;
25780;SDS011;13626;48.128;11.628;2023-03-24T10:53:45;3.25;;;2.67;;
25780;SDS011;13626;48.128;11.628;2023-03-24T10:56:17;5.70;;;2.75;;
25780;SDS011;13626;48.128;11.628;2023-03-24T10:58:45;5.28;;;3.13;;
25780;SDS011;13626;48.128;11.628;2023-03-24T11:01:21;4.45;;;3.10;;
25780;SDS011;13626;48.128;11.628;2023-03-24T11:03:50;3.08;;;2.47;;
25780;SDS011;13626;48.128;11.628;2023-03-24T11:06:18;3.10;;;2.42;;
25780;SDS011;13626;48.128;11.628;2023-03-24T11:08:46;3.78;;;2.60;;
25780;SDS011;13626;48.128;11.628;2023-03-24T11:13:52;3.92;;;2.08;;
25780;SDS011;13626;48.128;11.628;2023-03-24T11:16:26;2.63;;;1.90;;
25780;SDS011;13626;48.128;11.628;2023-03-24T11:19:04;3.95;;;2.00;;
25780;SDS011;13626;48.128;11.628;2023-03-24T11:21:34;2.08;;;1.90;;
25780;SDS011;13626;48.128;11.628;2023-03-24T11:24:07;3.92;;;2.05;;
25780;SDS011;13626;48.128;11.628;2023-03-24T11:26:36;2.42;;;1.85;;
25780;SDS011;13626;48.128;11.628;2023-03-24T11:29:04;3.13;;;1.80;;
25780;SDS011;13626;48.128;11.628;2023-03-24T11:31:36;2.53;;;1.90;;
25780;SDS011;13626;48.128;11.628;2023-03-24T11:34:17;4.45;;;2.28;;
25780;SDS011;13626;48.128;11.628;2023-03-24T11:36:46;2.38;;;1.95;;
25780;SDS011;13626;48.128;11.628;2023-03-24T11:39:15;3.22;;;2.10;;
25780;SDS011;13626;48.128;11.628;2023-03-24T11:42:28;2.33;;;2.00;;
25780;SDS011;13626;48.128;11.628;2023-03-24T11:49:31;2.75;;;2.10;;
25780;SDS011;13626;48.128;11.628;2023-03-24T11:52:01;3.97;;;2.58;;
25780;SDS011;13626;48.128;11.628;2023-03-24T11:54:30;2.42;;;2.13;;
25780;SDS011;13626;48.128;11.628;2023-03-24T11:57:02;2.50;;;2.20;;
25780;SDS011;13626;48.128;11.628;2023-03-24T12:34:03;3.20;;;2.08;;
25780;SDS011;13626;48.128;11.628;2023-03-24T12:39:11;1.90;;;1.73;;
25780;SDS011;13626;48.128;11.628;2023-03-24T12:41:48;5.07;;;2.47;;
25780;SDS011;13626;48.128;11.628;2023-03-24T12:46:57;3.20;;;2.20;;
25780;SDS011;13626;48.128;11.628;2023-03-24T12:57:03;3.22;;;2.28;;
25780;SDS011;13626;48.128;11.628;2023-03-24T12:59:35;6.07;;;2.33;;
25780;SDS011;13626;48.128;11.628;2023-03-24T13:04:48;2.47;;;2.10;;
25780;SDS011;13626;48.128;11.628;2023-03-24T13:07:17;4.72;;;2.17;;
25780;SDS011;13626;48.128;11.628;2023-03-24T13:09:55;3.53;;;2.50;;
25780;SDS011;13626;48.128;11.628;2023-03-24T13:12:41;3.40;;;2.33;;
25780;SDS011;13626;48.128;11.628;2023-03-24T13:17:38;4.45;;;2.35;;
25780;SDS011;13626;48.128;11.628;2023-03-24T13:20:13;3.05;;;2.47;;
25780;SDS011;13626;48.128;11.628;2023-03-24T13:22:42;2.60;;;1.80;;
25780;SDS011;13626;48.128;11.628;2023-03-24T13:27:58;2.50;;;2.30;;
25780;SDS011;13626;48.128;11.628;2023-03-24T13:30:33;2.10;;;1.73;;
25780;SDS011;13626;48.128;11.628;2023-03-24T13:33:02;1.92;;;1.73;;
25780;SDS011;13626;48.128;11.628;2023-03-24T13:38:12;2.35;;;1.95;;
25780;SDS011;13626;48.128;11.628;2023-03-24T13:40:41;2.42;;;1.90;;
25780;SDS011;13626;48.128;11.628;2023-03-24T13:43:10;2.58;;;2.22;;
25780;SDS011;13626;48.128;11.628;2023-03-24T13:45:42;4.68;;;2.33;;
25780;SDS011;13626;48.128;11.628;2023-03-24T13:53:13;2.30;;;1.90;;
25780;SDS011;13626;48.128;11.628;2023-03-24T13:55:49;2.97;;;2.00;;
25780;SDS011;13626;48.128;11.628;2023-03-24T13:58:21;1.98;;;1.58;;
25780;SDS011;13626;48.128;11.628;2023-03-24T14:05:59;2.40;;;1.10;;
25780;SDS011;13626;48.128;11.628;2023-03-24T14:14:04;1.00;;;0.90;;
25780;SDS011;13626;48.128;11.628;2023-03-24T14:19:26;2.97;;;1.40;;
25780;SDS011;13626;48.128;11.628;2023-03-24T14:21:56;2.30;;;1.30;;
25780;SDS011;13626;48.128;11.628;2023-03-24T14:24:25;1.20;;;1.00;;
25780;SDS011;13626;48.128;11.628;2023-03-24T14:26:52;1.60;;;1.33;;
25780;SDS011;13626;48.128;11.628;2023-03-24T14:29:36;2.80;;;1.70;;
25780;SDS011;13626;48.128;11.628;2023-03-24T14:32:03;1.80;;;1.30;;
25780;SDS011;13626;48.128;11.628;2023-03-24T14:34:54;1.30;;;1.17;;
25780;SDS011;13626;48.128;11.628;2023-03-24T14:37:25;2.42;;;1.40;;
25780;SDS011;13626;48.128;11.628;2023-03-24T14:39:53;4.57;;;1.27;;
25780;SDS011;13626;48.128;11.628;2023-03-24T14:44:59;1.25;;;1.13;;
25780;SDS011;13626;48.128;11.628;2023-03-24T14:47:28;2.20;;;1.40;;
25780;SDS011;13626;48.128;11.628;2023-03-24T14:49:57;1.52;;;0.95;;
25780;SDS011;13626;48.128;11.628;2023-03-24T14:52:34;2.67;;;1.23;;
25780;SDS011;13626;48.128;11.628;2023-03-24T14:55:08;2.67;;;1.20;;
25780;SDS011;13626;48.128;11.628;2023-03-24T14:57:39;2.08;;;1.13;;
25780;SDS011;13626;48.128;11.628;2023-03-24T15:00:09;1.65;;;1.33;;
25780;SDS011;13626;48.128;11.628;2023-03-24T15:15:57;2.45;;;1.35;;
25780;SDS011;13626;48.128;11.628;2023-03-24T15:18:25;3.47;;;0.88;;
25780;SDS011;13626;48.128;11.628;2023-03-24T15:20:55;1.40;;;1.00;;
25780;SDS011;13626;48.128;11.628;2023-03-24T15:23:26;1.92;;;1.10;;
25780;SDS011;13626;48.128;11.628;2023-03-24T15:25:53;2.28;;;0.98;;
25780;SDS011;13626;48.128;11.628;2023-03-24T15:28:26;1.00;;;1.00;;
25780;SDS011;13626;48.128;11.628;2023-03-24T15:30:54;1.23;;;0.93;;
25780;SDS011;13626;48.128;11.628;2023-03-24T15:33:22;1.58;;;1.10;;
25780;SDS011;13626;48.128;11.628;2023-03-24T15:35:53;3.38;;;1.40;;
25780;SDS011;13626;48.128;11.628;2023-03-24T15:38:26;2.50;;;1.20;;
25780;SDS011;13626;48.128;11.628;2023-03-24T15:40:59;2.85;;;1.83;;
25780;SDS011;13626;48.128;11.628;2023-03-24T15:43:27;0.90;;;0.90;;
25780;SDS011;13626;48.128;11.628;2023-03-24T15:45:55;1.73;;;1.00;;
25780;SDS011;13626;48.128;11.628;2023-03-24T15:48:37;1.45;;;1.25;;
25780;SDS011;13626;48.128;11.628;2023-03-24T15:51:07;10.27;;;2.83;;
25780;SDS011;13626;48.128;11.628;2023-03-24T15:56:18;1.58;;;1.30;;
25780;SDS011;13626;48.128;11.628;2023-03-24T15:58:56;1.08;;;0.98;;
25780;SDS011;13626;48.128;11.628;2023-03-24T16:01:32;2.47;;;1.05;;
25780;SDS011;13626;48.128;11.628;2023-03-24T16:04:05;1.42;;;0.80;;
25780;SDS011;13626;48.128;11.628;2023-03-24T16:06:33;2.50;;;1.00;;
25780;SDS011;13626;48.128;11.628;2023-03-24T16:09:05;3.95;;;1.20;;
25780;SDS011;13626;48.128;11.628;2023-03-24T16:11:35;2.78;;;1.50;;
25780;SDS011;13626;48.128;11.628;2023-03-24T16:14:20;2.88;;;1.17;;
25780;SDS011;13626;48.128;11.628;2023-03-24T16:16:47;3.25;;;1.30;;
25780;SDS011;13626;48.128;11.628;2023-03-24T16:19:15;1.55;;;1.10;;
25780;SDS011;13626;48.128;11.628;2023-03-24T16:21:42;4.07;;;1.42;;
25780;SDS011;13626;48.128;11.628;2023-03-24T16:24:09;1.63;;;1.05;;
25780;SDS011;13626;48.128;11.628;2023-03-24T16:26:36;2.95;;;1.60;;
25780;SDS011;13626;48.128;11.628;2023-03-24T16:31:43;1.65;;;1.35;;
25780;SDS011;13626;48.128;11.628;2023-03-24T16:34:14;1.40;;;1.27;;
25780;SDS011;13626;48.128;11.628;2023-03-24T16:36:44;4.43;;;1.80;;
25780;SDS011;13626;48.128;11.628;2023-03-24T16:39:13;4.00;;;1.63;;
25780;SDS011;13626;48.128;11.628;2023-03-24T16:41:41;2.30;;;1.50;;
25780;SDS011;13626;48.128;11.628;2023-03-24T16:44:09;2.60;;;1.45;;
25780;SDS011;13626;48.128;11.628;2023-03-24T16:46:36;1.77;;;1.35;;
25780;SDS011;13626;48.128;11.628;2023-03-24T16:49:06;2.53;;;1.67;;
25780;SDS011;13626;48.128;11.628;2023-03-24T16:51:33;2.65;;;1.63;;
25780;SDS011;13626;48.128;11.628;2023-03-24T16:54:00;1.63;;;1.30;;
25780;SDS011;13626;48.128;11.628;2023-03-24T16:56:29;2.25;;;1.48;;
25780;SDS011;13626;48.128;11.628;2023-03-24T16:58:56;1.88;;;1.45;;
25780;SDS011;13626;48.128;11.628;2023-03-24T17:03:55;2.67;;;1.00;;
25780;SDS011;13626;48.128;11.628;2023-03-24T17:06:23;2.67;;;1.55;;
25780;SDS011;13626;48.128;11.628;2023-03-24T17:08:50;5.55;;;1.40;;
25780;SDS011;13626;48.128;11.628;2023-03-24T17:11:28;2.45;;;1.50;;
25780;SDS011;13626;48.128;11.628;2023-03-24T17:13:55;2.90;;;1.55;;
25780;SDS011;13626;48.128;11.628;2023-03-24T17:19:11;2.55;;;0.80;;
25780;SDS011;13626;48.128;11.628;2023-03-24T17:21:40;1.92;;;1.63;;
25780;SDS011;13626;48.128;11.628;2023-03-24T17:24:10;1.73;;;1.20;;
25780;SDS011;13626;48.128;11.628;2023-03-24T17:26:39;3.33;;;1.17;;
25780;SDS011;13626;48.128;11.628;2023-03-24T17:29:08;2.20;;;1.00;;
25780;SDS011;13626;48.128;11.628;2023-03-24T17:31:35;1.85;;;0.90;;
25780;SDS011;13626;48.128;11.628;2023-03-24T17:34:03;1.30;;;1.20;;
25780;SDS011;13626;48.128;11.628;2023-03-24T17:36:46;2.17;;;0.85;;
25780;SDS011;13626;48.128;11.628;2023-03-24T17:39:16;1.65;;;1.10;;
25780;SDS011;13626;48.128;11.628;2023-03-24T17:41:43;2.10;;;0.95;;
25780;SDS011;13626;48.128;11.628;2023-03-24T17:44:11;1.33;;;1.23;;
25780;SDS011;13626;48.128;11.628;2023-03-24T17:46:38;2.78;;;1.20;;
25780;SDS011;13626;48.128;11.628;2023-03-24T17:49:05;1.05;;;0.80;;
25780;SDS011;13626;48.128;11.628;2023-03-24T17:51:33;1.08;;;1.00;;